Time;durP1;ratioP1;P1;durP2;ratioP2;P2;SDS_P1;SDS_P2;PMS_P1;PMS_P2;Temp;Humidity;BMP_temperature;BMP_pressure;BME280_temperature;BME280_humidity;BME280_pressure;Samples;Min_cycle;Max_cycle;Signal;HPM_P1;HPM_P2
2022/06/10 00:00:14;;;;;;;6.77;5.50;;;;;;;13.54;100.00;100925.84;4879611;29;20331;-73
2022/06/10 00:02:43;;;;;;;8.67;5.93;;;;;;;13.50;100.00;100932.09;4875448;29;20217;-71
2022/06/10 00:05:11;;;;;;;10.10;5.87;;;;;;;13.53;100.00;100931.16;4878662;29;20222;-72
2022/06/10 00:07:38;;;;;;;8.00;5.57;;;;;;;13.52;100.00;100938.13;4879661;29;20217;-72
2022/06/10 00:10:05;;;;;;;8.10;5.30;;;;;;;13.52;100.00;100937.28;4880821;29;20252;-71
2022/06/10 00:12:34;;;;;;;6.80;5.30;;;;;;;13.51;100.00;100940.78;4875899;29;20249;-72
2022/06/10 00:15:00;;;;;;;7.30;5.90;;;;;;;13.49;100.00;100942.63;4883115;29;20206;-71
2022/06/10 00:17:27;;;;;;;8.33;5.07;;;;;;;13.53;100.00;100947.72;4887541;29;20217;-72
2022/06/10 00:19:53;;;;;;;6.30;5.20;;;;;;;13.50;100.00;100946.97;4877968;29;20313;-71
2022/06/10 00:22:20;;;;;;;8.57;5.50;;;;;;;13.49;100.00;100953.97;4886850;29;20562;-73
2022/06/10 00:24:46;;;;;;;8.47;5.80;;;;;;;13.50;100.00;100960.06;4878728;29;20233;-72
2022/06/10 00:27:13;;;;;;;6.30;5.00;;;;;;;13.53;100.00;100954.72;4880968;29;20227;-72
2022/06/10 00:29:41;;;;;;;7.20;5.10;;;;;;;13.52;100.00;100961.69;4889731;29;20236;-72
2022/06/10 00:32:08;;;;;;;8.40;4.90;;;;;;;13.51;100.00;100962.63;4889561;29;20227;-71
2022/06/10 00:34:35;;;;;;;6.23;5.03;;;;;;;13.51;100.00;100960.00;4879801;29;20204;-72
2022/06/10 00:37:03;;;;;;;7.87;5.83;;;;;;;13.52;100.00;100981.81;4894075;29;20210;-72
2022/06/10 00:39:30;;;;;;;7.17;5.73;;;;;;;13.51;100.00;100978.34;4889715;29;20232;-72
2022/06/10 00:41:57;;;;;;;5.53;4.63;;;;;;;13.52;100.00;100979.19;4877163;29;20215;-72
2022/06/10 00:44:31;;;;;;;6.57;4.93;;;;;;;13.52;100.00;100982.66;4870012;29;20201;-72
2022/06/10 00:47:00;;;;;;;6.07;5.03;;;;;;;13.48;100.00;100974.97;4880518;29;20287;-72
2022/06/10 00:49:27;;;;;;;8.23;4.40;;;;;;;13.51;100.00;100978.34;4883295;29;20624;-71
2022/06/10 00:51:56;;;;;;;6.47;4.53;;;;;;;13.40;100.00;100981.31;4881891;29;20307;-72
2022/06/10 00:54:28;;;;;;;6.60;4.80;;;;;;;13.43;100.00;100982.97;4875270;29;20228;-72
2022/06/10 00:57:00;;;;;;;5.40;4.17;;;;;;;13.40;100.00;100983.94;4867014;29;20205;-72
2022/06/10 00:59:31;;;;;;;5.07;4.57;;;;;;;13.38;100.00;100988.34;4879271;29;20233;-72
2022/06/10 01:02:02;;;;;;;7.37;5.17;;;;;;;13.32;100.00;100995.56;4875764;29;20291;-72
2022/06/10 01:04:30;;;;;;;5.40;4.23;;;;;;;13.37;100.00;100989.25;4884940;29;20236;-73
2022/06/10 01:06:56;;;;;;;9.27;4.80;;;;;;;13.30;100.00;101006.03;4880068;29;20296;-72
2022/06/10 01:09:24;;;;;;;6.37;4.60;;;;;;;13.25;100.00;101003.56;4874584;29;20237;-72
2022/06/10 01:12:22;;;;;;;5.90;4.40;;;;;;;13.32;100.00;101009.50;4878931;29;20229;-72
2022/06/10 01:15:06;;;;;;;5.10;4.60;;;;;;;13.23;100.00;101017.63;4875548;29;20209;-72
2022/06/10 01:17:49;;;;;;;6.37;4.60;;;;;;;13.19;100.00;101013.34;4865400;29;20212;-72
2022/06/10 01:20:25;;;;;;;4.97;4.33;;;;;;;13.23;100.00;101021.09;4873476;29;20223;-72
2022/06/10 01:23:38;;;;;;;8.10;4.50;;;;;;;13.25;100.00;101021.88;4873101;29;20206;-72
2022/06/10 01:29:55;;;;;;;7.63;4.37;;;;;;;13.15;100.00;101041.41;4880377;29;20244;-72
2022/06/10 01:32:31;;;;;;;4.53;3.90;;;;;;;13.14;100.00;101036.22;4874864;29;20242;-72
2022/06/10 01:35:08;;;;;;;4.43;3.93;;;;;;;13.14;100.00;101029.22;4873835;29;20722;-72
2022/06/10 01:37:41;;;;;;;5.93;4.67;;;;;;;13.08;100.00;101039.88;4881489;29;20206;-72
2022/06/10 01:40:21;;;;;;;5.03;3.83;;;;;;;13.12;100.00;101040.63;4878765;29;20247;-74
2022/06/10 01:42:53;;;;;;;5.70;4.30;;;;;;;13.05;100.00;101045.19;4878378;29;20236;-73
2022/06/10 01:45:26;;;;;;;6.80;4.47;;;;;;;13.06;100.00;101041.69;4875402;29;20208;-72
2022/06/10 01:48:00;;;;;;;4.63;4.20;;;;;;;13.05;100.00;101048.69;4881987;29;20296;-72
2022/06/10 01:50:37;;;;;;;5.80;4.43;;;;;;;13.03;100.00;101058.34;4874917;29;20203;-73
2022/06/10 01:53:06;;;;;;;6.30;4.37;;;;;;;12.99;100.00;101067.19;4868570;29;20718;-72
2022/06/10 01:55:38;;;;;;;5.90;4.60;;;;;;;13.03;100.00;101063.59;4876656;29;20212;-72
2022/06/10 01:58:11;;;;;;;5.37;4.33;;;;;;;12.91;100.00;101068.28;4867258;29;20716;-72
2022/06/10 02:00:42;;;;;;;6.20;4.63;;;;;;;12.93;100.00;101069.09;4874774;29;20210;-72
2022/06/10 02:03:15;;;;;;;5.70;4.73;;;;;;;12.88;100.00;101067.50;4875213;29;20202;-72
2022/06/10 02:05:45;;;;;;;4.83;4.03;;;;;;;12.97;100.00;101063.75;4864446;29;20210;-72
2022/06/10 02:08:18;;;;;;;5.57;4.73;;;;;;;12.88;100.00;101069.25;4880892;29;20297;-73
2022/06/10 02:10:50;;;;;;;5.73;4.37;;;;;;;12.92;100.00;101083.13;4875860;29;20711;-72
2022/06/10 02:13:22;;;;;;;4.77;3.87;;;;;;;12.93;100.00;101083.06;4871649;29;20211;-72
2022/06/10 02:15:53;;;;;;;8.90;4.40;;;;;;;12.88;100.00;101088.44;4875051;29;20221;-72
2022/06/10 02:18:26;;;;;;;4.17;3.67;;;;;;;12.85;100.00;101095.50;4870889;29;20214;-72
2022/06/10 02:20:58;;;;;;;5.23;4.23;;;;;;;12.84;100.00;101102.50;4877480;29;20206;-72
2022/06/10 02:23:29;;;;;;;5.20;4.67;;;;;;;12.78;100.00;101101.81;4871616;29;20217;-72
2022/06/10 02:25:59;;;;;;;5.03;3.73;;;;;;;12.77;100.00;101111.44;4882636;29;20215;-73
2022/06/10 02:28:30;;;;;;;5.40;4.37;;;;;;;12.74;100.00;101113.28;4877743;29;20225;-72
2022/06/10 02:31:01;;;;;;;5.67;4.17;;;;;;;12.74;100.00;101121.13;4876721;29;20212;-72
2022/06/10 02:33:30;;;;;;;4.50;3.97;;;;;;;12.74;100.00;101121.13;4875424;29;20207;-72
2022/06/10 02:36:01;;;;;;;4.70;4.07;;;;;;;12.75;100.00;101122.81;4886077;29;20700;-72
2022/06/10 02:38:38;;;;;;;5.80;3.93;;;;;;;12.75;100.00;101122.81;4876560;29;20225;-72
2022/06/10 02:41:11;;;;;;;5.37;4.60;;;;;;;12.68;100.00;101122.13;4870901;29;20418;-72
2022/06/10 02:43:48;;;;;;;6.50;4.93;;;;;;;12.63;100.00;101129.25;4878359;29;20237;-72
2022/06/10 02:46:20;;;;;;;5.00;4.00;;;;;;;12.59;100.00;101130.22;4873300;29;20213;-72
2022/06/10 02:48:55;;;;;;;5.93;4.60;;;;;;;12.53;100.00;101146.09;4872079;29;20247;-72
2022/06/10 02:51:21;;;;;;;5.30;4.10;;;;;;;12.59;100.00;101148.53;4872638;29;20653;-73
2022/06/10 02:53:48;;;;;;;4.70;3.97;;;;;;;12.57;100.00;101158.19;4876950;29;20215;-73
2022/06/10 02:56:17;;;;;;;5.60;4.23;;;;;;;12.66;100.00;101155.31;4882656;29;20201;-72
2022/06/10 03:01:40;;;;;;;5.77;4.17;;;;;;;12.57;100.00;101159.03;4878334;29;20203;-72
2022/06/10 03:04:22;;;;;;;4.83;3.80;;;;;;;12.49;100.00;101161.00;4871355;29;20225;-72
2022/06/10 03:07:00;;;;;;;5.03;3.83;;;;;;;12.43;100.00;101154.16;4871242;29;20201;-73
2022/06/10 03:09:38;;;;;;;5.77;4.37;;;;;;;12.47;100.00;101161.03;4886041;29;20227;-73
2022/06/10 03:12:14;;;;;;;5.13;4.20;;;;;;;12.48;100.00;101173.19;4879987;29;20226;-74
2022/06/10 03:14:48;;;;;;;4.17;3.70;;;;;;;12.46;100.00;101176.78;4878288;29;20212;-73
2022/06/10 03:17:20;;;;;;;4.40;3.90;;;;;;;12.44;100.00;101189.88;4873599;29;20204;-73
2022/06/10 03:19:57;;;;;;;5.40;4.07;;;;;;;12.50;100.00;101183.63;4883280;29;20327;-72
2022/06/10 03:22:42;;;;;;;5.07;3.73;;;;;;;12.52;100.00;101184.44;4875643;29;20209;-72
2022/06/10 03:25:19;;;;;;;6.17;4.00;;;;;;;12.56;100.00;101191.34;4850494;29;20223;-72
2022/06/10 03:27:52;;;;;;;5.77;4.40;;;;;;;12.52;100.00;101197.53;4872708;29;20213;-72
2022/06/10 03:30:24;;;;;;;3.97;3.53;;;;;;;12.57;100.00;101203.50;4866301;29;20240;-72
2022/06/10 03:32:58;;;;;;;4.57;4.10;;;;;;;12.62;100.00;101203.41;4875272;29;20610;-73
2022/06/10 03:35:32;;;;;;;5.53;3.87;;;;;;;12.68;100.00;101205.84;4883334;29;20217;-72
2022/06/10 03:37:59;;;;;;;4.13;3.53;;;;;;;12.75;100.00;101204.81;4876076;29;20265;-73
2022/06/10 03:40:29;;;;;;;4.50;3.67;;;;;;;12.73;100.00;101224.03;4879904;29;20234;-72
2022/06/10 03:42:58;;;;;;;6.00;3.90;;;;;;;12.74;100.00;101221.41;4881584;29;20212;-72
2022/06/10 03:45:29;;;;;;;5.20;3.70;;;;;;;12.80;100.00;101218.59;4881733;29;20214;-72
2022/06/10 03:47:56;;;;;;;6.37;4.00;;;;;;;12.84;100.00;101230.72;4882933;29;20208;-72
2022/06/10 03:50:26;;;;;;;5.00;4.07;;;;;;;12.95;100.00;101226.97;4876137;29;20237;-74
2022/06/10 03:52:52;;;;;;;4.17;3.60;;;;;;;13.04;100.00;101227.56;4873085;29;20771;-73
2022/06/10 03:55:20;;;;;;;4.53;3.83;;;;;;;13.17;100.00;101230.72;4880483;29;20700;-73
2022/06/10 03:57:47;;;;;;;5.50;3.77;;;;;;;13.19;100.00;101234.16;4867175;29;20274;-72
2022/06/10 04:00:16;;;;;;;5.93;3.70;;;;;;;13.33;100.00;101239.06;4877569;29;20230;-72
2022/06/10 04:02:43;;;;;;;4.83;3.40;;;;;;;13.19;100.00;101247.25;4878734;29;20371;-71
2022/06/10 04:05:11;;;;;;;5.03;3.40;;;;;;;13.21;100.00;101242.84;4880116;29;20686;-71
2022/06/10 04:07:41;;;;;;;3.50;3.20;;;;;;;13.34;100.00;101242.53;4875705;29;20269;-73
2022/06/10 04:10:09;;;;;;;5.13;3.40;;;;;;;13.40;100.00;101248.47;4888642;29;20237;-71
2022/06/10 04:12:36;;;;;;;3.73;3.10;;;;;;;13.43;100.00;101250.97;4872675;29;20248;-72
2022/06/10 04:15:02;;;;;;;5.23;3.10;;;;;;;13.50;100.00;101248.19;4879078;29;20200;-72
2022/06/10 04:17:28;;;;;;;4.17;3.37;;;;;;;13.64;100.00;101256.53;4880252;29;20209;-72
2022/06/10 04:19:57;;;;;;;3.67;3.27;;;;;;;13.72;100.00;101257.16;4877118;29;20225;-72
2022/06/10 04:22:23;;;;;;;5.07;3.20;;;;;;;13.83;100.00;101262.94;4877073;29;20241;-72
2022/06/10 04:24:51;;;;;;;3.33;2.87;;;;;;;13.93;100.00;101254.78;4874932;29;20222;-72
2022/06/10 04:27:18;;;;;;;4.03;3.00;;;;;;;14.02;100.00;101265.03;4873344;29;20224;-72
2022/06/10 04:29:44;;;;;;;4.50;3.23;;;;;;;14.11;100.00;101272.59;4874510;29;20249;-71
2022/06/10 04:32:11;;;;;;;3.40;3.00;;;;;;;14.20;100.00;101272.31;4872900;29;20221;-74
2022/06/10 04:34:38;;;;;;;3.13;2.70;;;;;;;14.20;100.00;101280.19;4876842;29;20208;-74
2022/06/10 04:37:05;;;;;;;2.60;2.40;;;;;;;14.30;100.00;101278.16;4877077;29;20212;-72
2022/06/10 04:39:31;;;;;;;3.23;2.70;;;;;;;14.41;100.00;101283.03;4874445;29;20233;-72
2022/06/10 04:41:59;;;;;;;3.10;2.60;;;;;;;14.51;100.00;101286.22;4876287;29;20216;-72
2022/06/10 04:44:26;;;;;;;3.63;2.43;;;;;;;14.57;100.00;101299.16;4873476;29;20206;-72
2022/06/10 04:46:53;;;;;;;3.90;3.00;;;;;;;14.69;100.00;101297.94;4872947;29;20201;-72
2022/06/10 04:49:19;;;;;;;3.03;2.73;;;;;;;14.86;100.00;101298.25;4872591;29;20238;-73
2022/06/10 04:51:45;;;;;;;4.07;2.70;;;;;;;14.97;100.00;101297.88;4873319;29;20754;-72
2022/06/10 04:54:12;;;;;;;3.27;2.40;;;;;;;15.04;100.00;101303.75;4875599;29;20208;-71
2022/06/10 04:56:38;;;;;;;3.83;2.50;;;;;;;15.08;100.00;101314.13;4875451;29;20688;-72
2022/06/10 04:59:06;;;;;;;2.83;2.40;;;;;;;15.13;100.00;101314.81;4876953;29;20227;-72
2022/06/10 05:01:33;;;;;;;3.17;2.40;;;;;;;15.22;100.00;101313.66;4873592;29;20735;-74
2022/06/10 05:03:59;;;;;;;3.57;2.27;;;;;;;15.32;100.00;101315.06;4877700;29;20207;-73
2022/06/10 05:06:26;;;;;;;3.70;2.20;;;;;;;15.45;100.00;101317.25;4858590;29;20202;-73
2022/06/10 05:08:52;;;;;;;3.97;2.50;;;;;;;15.57;100.00;101321.22;4870219;29;20233;-73
2022/06/10 05:11:19;;;;;;;3.13;2.80;;;;;;;15.65;100.00;101327.03;4873343;29;20217;-74
2022/06/10 05:13:45;;;;;;;3.43;2.20;;;;;;;15.75;100.00;101327.59;4871442;29;20607;-73
2022/06/10 05:16:13;;;;;;;2.30;2.10;;;;;;;15.86;100.00;101330.69;4871663;29;20204;-74
2022/06/10 05:18:40;;;;;;;4.13;2.13;;;;;;;15.84;100.00;101341.25;4870914;29;20243;-73
2022/06/10 05:21:06;;;;;;;4.30;2.47;;;;;;;15.94;100.00;101335.69;4871724;29;20209;-72
2022/06/10 05:23:33;;;;;;;2.27;2.07;;;;;;;15.99;100.00;101345.09;4870230;29;20196;-74
2022/06/10 05:25:59;;;;;;;4.50;2.10;;;;;;;16.07;100.00;101355.31;4867566;29;20680;-75
2022/06/10 05:28:26;;;;;;;2.33;2.13;;;;;;;16.07;100.00;101353.53;4869444;29;20237;-74
2022/06/10 05:30:53;;;;;;;2.40;2.03;;;;;;;16.15;98.86;101352.44;4866591;29;20240;-74
2022/06/10 05:33:21;;;;;;;2.03;1.90;;;;;;;16.20;97.24;101358.34;4863660;29;20636;-75
2022/06/10 05:35:47;;;;;;;2.40;1.97;;;;;;;16.15;96.59;101358.53;4866133;29;20201;-74
2022/06/10 05:38:14;;;;;;;2.37;2.03;;;;;;;16.14;98.07;101358.59;4883440;29;20212;-75
2022/06/10 05:40:41;;;;;;;2.30;2.00;;;;;;;16.19;97.22;101357.50;4870110;29;20213;-74
2022/06/10 05:43:08;;;;;;;4.23;2.10;;;;;;;16.32;96.75;101367.56;4870825;29;20205;-74
2022/06/10 05:45:34;;;;;;;4.57;2.00;;;;;;;16.27;94.29;101367.75;4869138;29;20197;-74
2022/06/10 05:48:02;;;;;;;4.70;2.07;;;;;;;16.33;94.73;101371.91;4872280;29;20225;-74
2022/06/10 05:50:33;;;;;;;1.73;1.63;;;;;;;16.39;93.67;101376.91;4864659;29;20212;-74
2022/06/10 05:53:00;;;;;;;1.60;1.50;;;;;;;16.46;92.95;101376.66;4873587;29;20224;-74
2022/06/10 05:55:27;;;;;;;1.73;1.63;;;;;;;16.53;94.62;101374.59;4870467;29;20743;-74
2022/06/10 05:57:53;;;;;;;1.60;1.50;;;;;;;16.57;91.98;101380.59;4874251;29;20575;-74
2022/06/10 06:00:23;;;;;;;3.13;1.47;;;;;;;16.63;90.38;101389.13;4873314;29;20259;-74
2022/06/10 06:02:50;;;;;;;4.50;1.63;;;;;;;16.73;89.30;101392.28;4869839;29;20216;-71
2022/06/10 06:05:18;;;;;;;2.00;1.60;;;;;;;16.65;86.85;101386.44;4873828;29;20223;-72
2022/06/10 06:07:45;;;;;;;1.37;1.20;;;;;;;16.76;88.55;101384.25;4867514;29;20213;-72
2022/06/10 06:10:13;;;;;;;1.60;1.50;;;;;;;16.91;88.69;101393.34;4870180;29;20410;-73
2022/06/10 06:12:40;;;;;;;2.63;1.40;;;;;;;17.05;89.09;101382.25;4864289;29;20243;-73
2022/06/10 06:15:07;;;;;;;1.37;1.20;;;;;;;17.11;82.61;101396.94;4876362;29;20208;-69
2022/06/10 06:17:34;;;;;;;1.47;1.37;;;;;;;17.14;82.71;101399.44;4872180;29;20209;-73
2022/06/10 06:20:00;;;;;;;2.20;1.10;;;;;;;17.16;84.16;101395.81;4875819;29;20533;-72
2022/06/10 06:22:27;;;;;;;5.37;1.67;;;;;;;17.31;83.58;101404.03;4875843;29;20562;-72
2022/06/10 06:24:54;;;;;;;1.20;1.10;;;;;;;17.41;82.65;101405.31;4874967;29;20209;-72
2022/06/10 06:27:21;;;;;;;2.70;1.50;;;;;;;17.50;81.96;101404.97;4875712;29;20410;-70
2022/06/10 06:29:48;;;;;;;1.50;1.40;;;;;;;17.57;81.17;101411.69;4874724;29;20236;-72
2022/06/10 06:32:14;;;;;;;2.63;1.40;;;;;;;17.65;80.61;101413.97;4869777;29;20217;-72
2022/06/10 06:34:41;;;;;;;2.53;1.47;;;;;;;17.74;78.68;101420.63;4872360;29;20210;-72
2022/06/10 06:37:13;;;;;;;2.67;1.33;;;;;;;17.76;80.64;101414.38;4877125;29;20212;-72
2022/06/10 06:39:40;;;;;;;2.17;1.40;;;;;;;17.89;80.70;101412.06;4867803;29;20288;-72
2022/06/10 06:42:10;;;;;;;2.43;1.60;;;;;;;17.89;77.85;101414.72;4865362;29;20210;-72
2022/06/10 06:44:43;;;;;;;3.50;1.60;;;;;;;18.03;77.22;101423.78;4854925;29;20217;-73
2022/06/10 06:47:12;;;;;;;1.90;1.20;;;;;;;18.02;74.02;101436.13;4874946;29;20197;-72
2022/06/10 06:49:39;;;;;;;1.43;1.20;;;;;;;18.08;73.83;101430.59;4869289;29;20218;-72
2022/06/10 06:52:08;;;;;;;2.50;1.37;;;;;;;18.17;75.09;101422.25;4873591;29;20208;-72
2022/06/10 06:54:34;;;;;;;1.20;1.10;;;;;;;18.24;77.89;101424.59;4865835;29;20608;-71
2022/06/10 06:57:01;;;;;;;2.70;1.30;;;;;;;18.36;74.58;101418.75;4873500;29;20209;-71
2022/06/10 06:59:29;;;;;;;2.83;1.60;;;;;;;18.39;70.69;101434.47;4868270;29;20233;-72
2022/06/10 07:01:55;;;;;;;4.40;1.70;;;;;;;18.41;71.48;101431.75;4877648;29;20412;-72
2022/06/10 07:04:22;;;;;;;1.33;1.20;;;;;;;18.37;67.66;101444.25;4878150;29;20383;-72
2022/06/10 07:06:48;;;;;;;1.70;1.10;;;;;;;18.37;67.25;101440.75;4870900;29;20258;-72
2022/06/10 07:09:15;;;;;;;2.20;1.13;;;;;;;18.38;67.51;101443.31;4864839;29;20229;-73
2022/06/10 07:11:41;;;;;;;1.30;1.00;;;;;;;18.47;66.52;101442.03;4864755;29;20205;-71
2022/06/10 07:14:08;;;;;;;2.27;1.10;;;;;;;18.52;64.75;101448.81;4858200;29;20709;-72
2022/06/10 07:16:36;;;;;;;1.10;1.00;;;;;;;18.60;65.21;101445.81;4867441;29;20205;-71
2022/06/10 07:19:03;;;;;;;3.10;1.23;;;;;;;18.74;65.90;101442.53;4879839;29;20228;-70
2022/06/10 07:21:30;;;;;;;2.73;1.20;;;;;;;18.77;64.27;101450.31;4870082;29;20215;-72
2022/06/10 07:23:56;;;;;;;2.17;1.17;;;;;;;18.80;63.27;101438.72;4877231;29;20233;-72
2022/06/10 07:26:23;;;;;;;1.83;1.03;;;;;;;18.96;64.44;101438.88;4867164;29;20213;-71
2022/06/10 07:28:50;;;;;;;2.93;1.23;;;;;;;19.03;61.79;101458.78;4869698;29;20305;-72
2022/06/10 07:31:16;;;;;;;2.07;1.03;;;;;;;18.94;61.67;101452.16;4870126;29;20208;-72
2022/06/10 07:33:44;;;;;;;2.50;1.10;;;;;;;19.10;62.64;101450.50;4873965;29;20252;-72
2022/06/10 07:36:11;;;;;;;1.93;1.20;;;;;;;19.28;61.72;101448.72;4868725;29;20202;-72
2022/06/10 07:38:38;;;;;;;1.90;0.90;;;;;;;19.37;58.89;101459.78;4864372;29;20226;-72
2022/06/10 07:43:48;;;;;;;3.67;0.90;;;;;;;19.44;57.75;101455.91;4873130;29;20213;-72
2022/06/10 07:46:18;;;;;;;1.10;0.90;;;;;;;19.36;58.44;101456.28;4876129;29;20210;-72
2022/06/10 07:48:47;;;;;;;4.17;1.10;;;;;;;19.56;58.72;101459.69;4869505;29;20251;-71
2022/06/10 07:51:14;;;;;;;2.40;1.13;;;;;;;19.58;55.73;101465.78;4865684;29;20297;-72
2022/06/10 07:53:41;;;;;;;3.03;1.20;;;;;;;19.43;55.34;101472.69;4870691;29;20229;-70
2022/06/10 07:56:09;;;;;;;1.80;1.27;;;;;;;19.39;55.06;101473.78;4867513;29;20205;-73
2022/06/10 07:58:36;;;;;;;3.87;1.10;;;;;;;19.37;55.09;101470.38;4866570;29;20240;-72
2022/06/10 08:01:02;;;;;;;4.20;1.13;;;;;;;19.41;55.24;101456.06;4865167;29;20209;-72
2022/06/10 08:03:29;;;;;;;3.37;1.30;;;;;;;19.47;56.00;101459.25;4870322;29;20211;-72
2022/06/10 08:05:58;;;;;;;3.37;1.00;;;;;;;19.78;56.16;101463.00;4864256;29;20227;-72
2022/06/10 08:08:24;;;;;;;1.53;1.00;;;;;;;19.80;54.97;101455.81;4873445;29;20262;-72
2022/06/10 08:10:51;;;;;;;3.40;1.00;;;;;;;19.82;53.97;101463.69;4875653;29;20209;-71
2022/06/10 08:13:17;;;;;;;2.00;1.17;;;;;;;19.85;54.93;101461.75;4865387;29;20229;-72
2022/06/10 08:15:45;;;;;;;3.13;1.17;;;;;;;19.85;54.00;101464.38;4868831;29;20559;-75
2022/06/10 08:18:14;;;;;;;1.67;1.10;;;;;;;19.90;54.97;101458.88;4867107;29;20213;-75
2022/06/10 08:23:29;;;;;;;3.73;0.90;;;;;;;20.26;52.73;101460.50;4869037;29;20647;-73
2022/06/10 08:25:57;;;;;;;2.13;1.07;;;;;;;20.20;53.23;101461.69;4867687;29;20667;-69
2022/06/10 08:28:23;;;;;;;2.23;1.00;;;;;;;20.26;53.35;101462.28;4870932;29;20655;-71
2022/06/10 08:30:50;;;;;;;2.17;1.30;;;;;;;20.20;52.58;101453.75;4871097;29;20213;-72
2022/06/10 08:33:17;;;;;;;2.83;1.00;;;;;;;20.21;52.35;101452.81;4871202;29;20217;-72
2022/06/10 08:35:43;;;;;;;3.03;0.90;;;;;;;20.43;52.54;101459.59;4865696;29;20227;-72
2022/06/10 08:38:12;;;;;;;3.40;1.20;;;;;;;20.44;54.68;101453.38;4869845;29;20209;-72
2022/06/10 08:40:53;;;;;;;4.10;1.37;;;;;;;20.60;51.70;101474.56;4868498;29;20811;-72
2022/06/10 08:43:32;;;;;;;1.40;0.90;;;;;;;20.55;51.52;101455.44;4872424;29;20667;-71
2022/06/10 08:46:10;;;;;;;3.03;1.00;;;;;;;20.79;53.29;101453.22;4872965;29;20213;-73
2022/06/10 08:48:51;;;;;;;3.33;1.33;;;;;;;20.85;51.60;101449.41;4873756;29;20228;-73
2022/06/10 08:51:28;;;;;;;1.67;0.80;;;;;;;20.85;51.06;101455.53;4874532;29;20204;-72
2022/06/10 08:54:16;;;;;;;1.73;1.10;;;;;;;20.94;51.99;101452.38;4870655;29;20725;-72
2022/06/10 08:56:46;;;;;;;3.80;1.37;;;;;;;21.14;52.36;101460.97;4873084;29;20213;-73
2022/06/10 08:59:23;;;;;;;4.20;1.00;;;;;;;21.13;51.23;101454.81;4867717;29;20603;-72
2022/06/10 09:01:54;;;;;;;1.20;1.07;;;;;;;21.17;50.50;101461.66;4872002;29;20208;-70
2022/06/10 09:04:29;;;;;;;3.27;1.30;;;;;;;21.32;52.31;101451.97;4862726;29;20536;-72
2022/06/10 09:06:58;;;;;;;3.53;1.10;;;;;;;21.26;49.68;101462.91;4875279;29;20211;-71
2022/06/10 09:09:26;;;;;;;4.00;1.43;;;;;;;21.30;50.24;101468.88;4873697;29;20902;-73
2022/06/10 09:11:59;;;;;;;3.17;1.03;;;;;;;21.30;49.12;101472.41;4879860;29;20701;-70
2022/06/10 09:14:28;;;;;;;2.70;1.10;;;;;;;21.29;50.16;101460.09;4869613;29;20224;-72
2022/06/10 09:17:01;;;;;;;3.77;1.27;;;;;;;21.27;49.98;101461.13;4883386;29;20210;-72
2022/06/10 09:19:38;;;;;;;4.17;1.00;;;;;;;21.29;49.46;101456.59;4867371;29;20710;-72
2022/06/10 09:22:13;;;;;;;3.13;0.97;;;;;;;21.29;49.80;101459.25;4868409;29;20553;-69
2022/06/10 09:24:44;;;;;;;3.70;1.13;;;;;;;21.44;53.19;101445.09;4872099;29;20667;-72
2022/06/10 09:27:17;;;;;;;5.63;1.30;;;;;;;21.53;49.23;101459.66;4875816;29;20283;-73
2022/06/10 09:29:43;;;;;;;4.00;1.23;;;;;;;21.57;49.68;101461.16;4872337;29;20237;-72
2022/06/10 09:32:14;;;;;;;1.97;0.87;;;;;;;21.64;50.80;101459.84;4878218;29;20201;-72
2022/06/10 09:34:52;;;;;;;2.83;1.30;;;;;;;21.74;49.62;101468.97;4876927;29;20231;-71
2022/06/10 09:37:31;;;;;;;1.43;0.90;;;;;;;21.67;48.01;101470.28;4874913;29;20202;-72
2022/06/10 09:43:26;;;;;;;3.27;1.30;;;;;;;21.93;51.11;101468.72;4878697;29;20284;-71
2022/06/10 09:46:31;;;;;;;3.97;1.13;;;;;;;21.91;50.17;101469.75;5141228;27;21074;-72
2022/06/10 09:49:13;;;;;;;2.67;0.90;;;;;;;21.76;47.74;101479.50;5141631;27;20216;-72
2022/06/10 09:51:50;;;;;;;0.90;0.80;;;;;;;21.80;48.68;101475.72;5134925;27;20203;-72
2022/06/10 09:54:35;;;;;;;2.73;1.10;;;;;;;21.94;48.57;101480.19;5140611;27;20190;-73
2022/06/10 09:57:15;;;;;;;2.50;1.20;;;;;;;22.06;48.15;101473.28;5141398;27;20208;-73
2022/06/10 09:59:48;;;;;;;1.10;0.80;;;;;;;21.90;48.34;101471.56;5130419;27;20840;-72
2022/06/10 10:02:39;;;;;;;3.00;1.30;;;;;;;22.18;50.26;101467.22;5135674;27;20210;-70
2022/06/10 10:05:22;;;;;;;2.87;1.10;;;;;;;22.25;48.22;101475.63;5127679;27;20209;-71
2022/06/10 10:07:51;;;;;;;5.10;1.40;;;;;;;22.37;49.13;101463.44;5143431;27;20316;-71
2022/06/10 10:10:24;;;;;;;5.07;1.10;;;;;;;22.45;48.68;101469.13;5152866;27;20216;-69
2022/06/10 10:13:10;;;;;;;1.50;1.10;;;;;;;22.33;48.32;101469.91;5145501;27;20207;-71
2022/06/10 10:15:49;;;;;;;2.63;1.40;;;;;;;22.33;49.68;101467.25;5158197;27;20199;-69
2022/06/10 10:18:47;;;;;;;2.40;1.10;;;;;;;22.35;48.73;101462.69;5152045;27;20195;-71
2022/06/10 10:21:19;;;;;;;1.45;1.20;;;;;;;22.23;47.22;101467.78;5152499;27;20197;-70
2022/06/10 10:23:48;;;;;;;2.42;1.20;;;;;;;22.38;48.58;101459.84;5161370;27;20186;-69
2022/06/10 10:26:24;;;;;;;1.50;1.08;;;;;;;22.53;48.70;101466.81;5145076;27;20203;-69
2022/06/10 10:28:58;;;;;;;1.17;0.90;;;;;;;22.27;48.50;101468.50;5152764;27;20241;-69
2022/06/10 10:31:27;;;;;;;4.30;1.40;;;;;;;22.14;49.05;101457.72;5150425;27;20211;-70
2022/06/10 10:33:56;;;;;;;3.28;1.15;;;;;;;22.38;51.22;101444.75;5135156;27;20201;-70
2022/06/10 10:36:32;;;;;;;2.80;1.23;;;;;;;22.54;49.69;101457.06;5133749;27;20223;-72
2022/06/10 10:39:12;;;;;;;2.03;1.00;;;;;;;22.62;47.32;101458.28;5132130;27;20219;-71
2022/06/10 10:41:42;;;;;;;1.60;1.20;;;;;;;22.70;47.83;101465.75;5135670;27;20798;-72
2022/06/10 10:44:25;;;;;;;3.22;1.50;;;;;;;22.94;49.45;101467.81;5129783;27;20232;-72
2022/06/10 10:47:00;;;;;;;2.63;0.90;;;;;;;23.02;48.26;101454.84;5132671;27;20681;-72
2022/06/10 10:49:31;;;;;;;3.55;1.45;;;;;;;22.95;47.88;101451.72;5141558;27;20225;-74
2022/06/10 10:51:58;;;;;;;3.88;1.08;;;;;;;22.99;47.45;101458.56;5132675;27;20207;-73
2022/06/10 10:54:33;;;;;;;4.35;1.20;;;;;;;22.94;46.72;101451.84;5130892;27;20311;-73
2022/06/10 10:57:00;;;;;;;2.78;1.25;;;;;;;22.82;46.95;101453.50;5125159;27;20676;-73
2022/06/10 10:59:34;;;;;;;1.48;0.90;;;;;;;23.03;48.34;101449.44;5124730;27;20213;-73
2022/06/10 11:02:02;;;;;;;1.63;1.08;;;;;;;23.22;47.49;101450.91;5127620;27;20211;-71
2022/06/10 11:04:34;;;;;;;5.45;1.40;;;;;;;23.42;45.40;101450.41;5115773;27;20231;-72
2022/06/10 11:07:04;;;;;;;2.45;1.20;;;;;;;23.44;47.15;101447.66;5121109;27;20227;-71
2022/06/10 11:09:32;;;;;;;2.15;1.10;;;;;;;23.73;47.40;101434.19;5122147;27;20211;-73
2022/06/10 11:12:04;;;;;;;4.80;1.17;;;;;;;23.87;46.87;101444.75;5123140;27;20197;-73
2022/06/10 11:14:34;;;;;;;2.50;1.13;;;;;;;23.69;45.54;101449.50;5119498;27;20181;-71
2022/06/10 11:17:09;;;;;;;2.67;1.10;;;;;;;23.93;46.71;101452.31;5125085;27;20516;-72
2022/06/10 11:19:50;;;;;;;3.80;1.10;;;;;;;23.89;46.32;101442.84;5118699;27;20245;-71
2022/06/10 11:22:22;;;;;;;1.77;1.30;;;;;;;23.95;46.84;101438.91;5118741;27;20208;-71
2022/06/10 11:24:51;;;;;;;2.90;1.30;;;;;;;23.88;45.59;101441.13;5123775;27;20221;-71
2022/06/10 11:27:22;;;;;;;3.42;1.33;;;;;;;23.84;44.88;101444.13;5115547;27;20200;-72
2022/06/10 11:29:58;;;;;;;5.07;1.15;;;;;;;24.04;44.63;101448.03;5118816;27;20312;-71
2022/06/10 11:32:27;;;;;;;3.33;1.00;;;;;;;24.14;45.23;101436.63;5121762;27;20205;-73
2022/06/10 11:35:00;;;;;;;3.75;1.27;;;;;;;24.25;43.24;101443.84;5116936;27;20209;-71
2022/06/10 11:37:30;;;;;;;2.70;1.00;;;;;;;24.16;42.73;101453.34;5116165;27;20580;-74
2022/06/10 11:40:06;;;;;;;1.25;1.00;;;;;;;24.12;43.95;101433.22;5111091;27;20225;-73
2022/06/10 11:42:38;;;;;;;3.28;1.20;;;;;;;24.29;45.21;101434.72;5108083;27;20531;-73
2022/06/10 11:45:12;;;;;;;3.83;1.02;;;;;;;24.38;45.28;101430.53;5111150;27;20216;-74
2022/06/10 11:47:45;;;;;;;1.65;1.02;;;;;;;24.26;41.49;101448.25;5118106;27;20824;-75
2022/06/10 11:50:19;;;;;;;3.97;1.40;;;;;;;24.06;42.50;101433.66;5114430;27;20474;-71
2022/06/10 11:52:51;;;;;;;1.90;1.13;;;;;;;24.16;44.89;101429.38;5119315;27;20270;-71